Danville, Iowa
Current Conditions -  °F | °C
As of 2:29 AM on Monday 26 Jan 2015 (Local Time) from KBRL Reporting Station
Broken Clouds Broken Clouds  
Wind Chill: 21°   Ceiling: 2300
Heat Index: 21°   Visibility: 10mi
Dew Point: 17°   Wind: 0mph
Humidity: 85%   Direction: NA
Pressure: 30.04"   Gusts: NA
Location:  40.86°N, 91.31°W
Report Text: KBRL 260829Z AUTO 00000KT 10SM BKN023 M06/M08 A3004 RMK AO2 T10611083
Loading
Personal Weather Stations






























Interactive Weather Map New forecast layout! Learn more

10-Day Weather Forecast

Advertisements
Track Severe Weather on mobile